Time;durP1;ratioP1;P1;durP2;ratioP2;P2;SDS_P1;SDS_P2;PMS_P1;PMS_P2;Temp;Humidity;BMP_temperature;BMP_pressure;BME280_temperature;BME280_humidity;BME280_pressure;Samples;Min_cycle;Max_cycle;Signal;HPM_P1;HPM_P2
2023/04/08 00:00:07;;;;;;;35.20;20.90;;;;;;;-128.00;-1.00;-1.00;18868;332;7504452;-34
2023/04/08 00:02:33;;;;;;;34.40;22.90;;;;;;;-128.00;-1.00;-1.00;18482;296;7504558;-33
2023/04/08 00:04:59;;;;;;;52.20;30.60;;;;;;;-128.00;-1.00;-1.00;18479;312;7504708;-33
2023/04/08 00:07:24;;;;;;;31.80;17.30;;;;;;;-128.00;-1.00;-1.00;18480;296;7504938;-35
2023/04/08 00:09:50;;;;;;;37.70;19.60;;;;;;;-128.00;-1.00;-1.00;18489;297;7504938;-34
2023/04/08 00:12:16;;;;;;;30.90;18.50;;;;;;;-128.00;-1.00;-1.00;18849;296;7504278;-36
2023/04/08 00:14:43;;;;;;;44.30;23.80;;;;;;;-128.00;-1.00;-1.00;18868;296;7504441;-35
2023/04/08 00:17:09;;;;;;;43.70;27.30;;;;;;;-128.00;-1.00;-1.00;18891;308;7505377;-35
2023/04/08 00:19:35;;;;;;;36.40;17.10;;;;;;;-128.00;-1.00;-1.00;18861;296;7504572;-32
2023/04/08 00:22:02;;;;;;;51.70;31.80;;;;;;;-128.00;-1.00;-1.00;18851;345;7504135;-33
2023/04/08 00:24:28;;;;;;;47.80;28.30;;;;;;;-128.00;-1.00;-1.00;18872;297;7504571;-32
2023/04/08 00:26:55;;;;;;;32.50;19.70;;;;;;;-128.00;-1.00;-1.00;18867;296;7505278;-35
2023/04/08 00:29:21;;;;;;;34.80;19.50;;;;;;;-128.00;-1.00;-1.00;18470;296;7504725;-35
2023/04/08 00:31:47;;;;;;;46.50;27.50;;;;;;;-128.00;-1.00;-1.00;18870;341;7504831;-33
2023/04/08 00:34:13;;;;;;;40.40;24.80;;;;;;;-128.00;-1.00;-1.00;18488;296;7504843;-34
2023/04/08 00:36:39;;;;;;;40.50;23.70;;;;;;;-128.00;-1.00;-1.00;18452;289;7504827;-33
2023/04/08 00:39:05;;;;;;;46.90;31.70;;;;;;;-128.00;-1.00;-1.00;18465;296;7506352;-33
2023/04/08 00:41:33;;;;;;;35.20;22.60;;;;;;;-128.00;-1.00;-1.00;18464;297;7505262;-35
2023/04/08 00:43:59;;;;;;;26.60;13.50;;;;;;;-128.00;-1.00;-1.00;18482;296;7504527;-32
2023/04/08 00:46:25;;;;;;;37.60;17.60;;;;;;;-128.00;-1.00;-1.00;18861;308;7504219;-32
2023/04/08 00:48:51;;;;;;;26.20;14.60;;;;;;;-128.00;-1.00;-1.00;18873;298;7504525;-32
2023/04/08 00:51:18;;;;;;;24.80;14.00;;;;;;;-128.00;-1.00;-1.00;18866;297;7506241;-35
2023/04/08 00:53:44;;;;;;;31.20;16.60;;;;;;;-128.00;-1.00;-1.00;18463;310;7504419;-32
2023/04/08 00:56:10;;;;;;;46.10;29.20;;;;;;;-128.00;-1.00;-1.00;18875;297;7504270;-32
2023/04/08 00:58:37;;;;;;;34.10;14.50;;;;;;;-128.00;-1.00;-1.00;18860;297;7504561;-34
2023/04/08 01:01:06;;;;;;;27.50;14.60;;;;;;;-128.00;-1.00;-1.00;18439;297;7505882;-32
2023/04/08 01:03:47;;;;;;;25.10;15.10;;;;;;;-128.00;-1.00;-1.00;18463;297;7505606;-35
2023/04/08 01:06:26;;;;;;;38.30;18.90;;;;;;;-128.00;-1.00;-1.00;18456;297;7504751;-33
2023/04/08 01:08:52;;;;;;;22.30;14.10;;;;;;;-128.00;-1.00;-1.00;18435;287;7504827;-33
2023/04/08 01:11:18;;;;;;;36.60;18.40;;;;;;;-128.00;-1.00;-1.00;18479;297;7505398;-36
2023/04/08 01:13:45;;;;;;;42.00;22.00;;;;;;;-128.00;-1.00;-1.00;18456;297;7504378;-35
2023/04/08 01:16:12;;;;;;;36.80;18.10;;;;;;;-128.00;-1.00;-1.00;18452;297;7504707;-33
2023/04/08 01:18:38;;;;;;;37.90;17.50;;;;;;;-128.00;-1.00;-1.00;18456;297;7506643;-35
2023/04/08 01:21:04;;;;;;;117.60;42.00;;;;;;;-128.00;-1.00;-1.00;18471;349;7506329;-32
2023/04/08 01:23:41;;;;;;;86.00;24.60;;;;;;;-128.00;-1.00;-1.00;18452;349;7504064;-34
2023/04/08 01:26:10;;;;;;;132.40;38.70;;;;;;;-128.00;-1.00;-1.00;18459;298;7506249;-35
2023/04/08 01:28:35;;;;;;;49.10;20.80;;;;;;;-128.00;-1.00;-1.00;18467;297;7505121;-35
2023/04/08 01:31:01;;;;;;;42.90;19.90;;;;;;;-128.00;-1.00;-1.00;18445;297;7504815;-35
2023/04/08 01:33:27;;;;;;;35.20;20.60;;;;;;;-128.00;-1.00;-1.00;18868;320;7504464;-35
2023/04/08 01:35:53;;;;;;;58.00;33.00;;;;;;;-128.00;-1.00;-1.00;18477;297;7504503;-39
2023/04/08 01:38:19;;;;;;;94.10;38.70;;;;;;;-128.00;-1.00;-1.00;18451;297;7506531;-34
2023/04/08 01:40:46;;;;;;;74.00;31.40;;;;;;;-128.00;-1.00;-1.00;18495;298;7504955;-35
2023/04/08 01:43:13;;;;;;;115.40;43.90;;;;;;;-128.00;-1.00;-1.00;18474;297;7506596;-34
2023/04/08 01:45:38;;;;;;;207.70;83.20;;;;;;;-128.00;-1.00;-1.00;18447;297;7506086;-32
2023/04/08 01:48:05;;;;;;;41.50;16.70;;;;;;;-128.00;-1.00;-1.00;18460;341;7506208;-32
2023/04/08 01:50:31;;;;;;;81.30;43.90;;;;;;;-128.00;-1.00;-1.00;18474;337;7504955;-35
2023/04/08 01:52:58;;;;;;;31.10;17.10;;;;;;;-128.00;-1.00;-1.00;18445;297;7504193;-36
2023/04/08 01:55:23;;;;;;;26.30;15.10;;;;;;;-128.00;-1.00;-1.00;18457;349;7505741;-35
2023/04/08 01:57:51;;;;;;;28.80;15.40;;;;;;;-128.00;-1.00;-1.00;18473;312;7506147;-36
2023/04/08 02:00:19;;;;;;;35.00;18.70;;;;;;;-128.00;-1.00;-1.00;18480;297;7506104;-32
2023/04/08 02:02:46;;;;;;;24.70;13.40;;;;;;;-128.00;-1.00;-1.00;18421;299;7504886;-32
2023/04/08 02:05:12;;;;;;;24.10;13.70;;;;;;;-128.00;-1.00;-1.00;18443;298;7505790;-37
2023/04/08 02:07:38;;;;;;;33.60;14.60;;;;;;;-128.00;-1.00;-1.00;18478;297;7504533;-35
2023/04/08 02:10:04;;;;;;;17.60;11.30;;;;;;;-128.00;-1.00;-1.00;18472;297;7506100;-37
2023/04/08 02:12:30;;;;;;;22.10;12.00;;;;;;;-128.00;-1.00;-1.00;18473;297;7507113;-36
2023/04/08 02:14:56;;;;;;;33.10;17.20;;;;;;;-128.00;-1.00;-1.00;18480;297;7506001;-36
2023/04/08 02:17:28;;;;;;;28.90;15.90;;;;;;;-128.00;-1.00;-1.00;18467;316;7506622;-36
2023/04/08 02:20:00;;;;;;;20.60;13.60;;;;;;;-128.00;-1.00;-1.00;18479;297;7505576;-35
2023/04/08 02:22:55;;;;;;;23.50;12.40;;;;;;;-128.00;-1.00;-1.00;18454;297;7504751;-36
2023/04/08 02:25:22;;;;;;;19.40;11.00;;;;;;;-128.00;-1.00;-1.00;18436;337;7506990;-33
2023/04/08 02:27:48;;;;;;;15.60;9.60;;;;;;;-128.00;-1.00;-1.00;18465;320;7505571;-35
2023/04/08 02:30:14;;;;;;;21.70;12.80;;;;;;;-128.00;-1.00;-1.00;18455;297;7504859;-34
2023/04/08 02:32:40;;;;;;;25.70;15.10;;;;;;;-128.00;-1.00;-1.00;18464;297;7505033;-32
2023/04/08 02:35:06;;;;;;;26.90;14.40;;;;;;;-128.00;-1.00;-1.00;18871;298;7504415;-35
2023/04/08 02:37:32;;;;;;;20.00;12.30;;;;;;;-128.00;-1.00;-1.00;18459;297;7504506;-32
2023/04/08 02:39:58;;;;;;;24.40;11.00;;;;;;;-128.00;-1.00;-1.00;18449;332;7505949;-32
2023/04/08 02:42:24;;;;;;;23.20;14.00;;;;;;;-128.00;-1.00;-1.00;18859;320;7504392;-32
2023/04/08 02:44:51;;;;;;;26.80;15.10;;;;;;;-128.00;-1.00;-1.00;18859;297;7505183;-32
2023/04/08 02:47:17;;;;;;;26.70;14.10;;;;;;;-128.00;-1.00;-1.00;18875;298;7505284;-32
2023/04/08 02:49:43;;;;;;;25.70;15.40;;;;;;;-128.00;-1.00;-1.00;18854;298;7506006;-32
2023/04/08 02:52:09;;;;;;;30.40;18.50;;;;;;;-128.00;-1.00;-1.00;18875;297;7504781;-35
2023/04/08 02:54:36;;;;;;;26.10;15.60;;;;;;;-128.00;-1.00;-1.00;18832;287;7504278;-35
2023/04/08 02:57:02;;;;;;;32.00;18.80;;;;;;;-128.00;-1.00;-1.00;18857;320;7504336;-35
2023/04/08 02:59:28;;;;;;;27.70;14.60;;;;;;;-128.00;-1.00;-1.00;18873;297;7504963;-31
2023/04/08 03:01:54;;;;;;;30.80;18.00;;;;;;;-128.00;-1.00;-1.00;18877;297;7504158;-32
2023/04/08 03:04:21;;;;;;;42.70;27.50;;;;;;;-128.00;-1.00;-1.00;18467;297;7504802;-35
2023/04/08 03:06:47;;;;;;;72.70;44.70;;;;;;;-128.00;-1.00;-1.00;18882;297;7504536;-34
2023/04/08 03:09:13;;;;;;;30.80;18.70;;;;;;;-128.00;-1.00;-1.00;18853;298;7504623;-31
2023/04/08 03:11:39;;;;;;;56.00;36.30;;;;;;;-128.00;-1.00;-1.00;18872;297;7504704;-32
2023/04/08 03:14:05;;;;;;;83.90;52.50;;;;;;;-128.00;-1.00;-1.00;18857;297;7505742;-31
2023/04/08 03:16:32;;;;;;;40.90;24.20;;;;;;;-128.00;-1.00;-1.00;18855;297;7505747;-35
2023/04/08 03:18:58;;;;;;;36.20;20.90;;;;;;;-128.00;-1.00;-1.00;18863;297;7504712;-31
2023/04/08 03:21:24;;;;;;;36.50;20.40;;;;;;;-128.00;-1.00;-1.00;18861;297;7504319;-35
2023/04/08 03:23:50;;;;;;;35.60;17.40;;;;;;;-128.00;-1.00;-1.00;18866;297;7504774;-31
2023/04/08 03:26:16;;;;;;;33.60;14.50;;;;;;;-128.00;-1.00;-1.00;18438;299;7504496;-31
2023/04/08 03:28:42;;;;;;;34.60;16.70;;;;;;;-128.00;-1.00;-1.00;18892;297;7504117;-33
2023/04/08 03:31:08;;;;;;;39.30;16.80;;;;;;;-128.00;-1.00;-1.00;18867;297;7504799;-31
2023/04/08 03:33:34;;;;;;;40.20;17.50;;;;;;;-128.00;-1.00;-1.00;18890;297;7504549;-31
2023/04/08 03:36:00;;;;;;;33.20;16.90;;;;;;;-128.00;-1.00;-1.00;18866;297;7504382;-31
2023/04/08 03:38:27;;;;;;;32.60;15.40;;;;;;;-128.00;-1.00;-1.00;18869;304;7505275;-35
2023/04/08 03:40:53;;;;;;;33.30;16.30;;;;;;;-128.00;-1.00;-1.00;18855;297;7504283;-34
2023/04/08 03:43:20;;;;;;;31.60;16.60;;;;;;;-128.00;-1.00;-1.00;18855;297;7504818;-35
2023/04/08 03:45:46;;;;;;;28.80;15.00;;;;;;;-128.00;-1.00;-1.00;18479;297;7504870;-31
2023/04/08 03:48:11;;;;;;;27.10;14.30;;;;;;;-128.00;-1.00;-1.00;18482;297;7505806;-35
2023/04/08 03:50:38;;;;;;;51.70;20.00;;;;;;;-128.00;-1.00;-1.00;18890;297;7505803;-31
2023/04/08 03:53:04;;;;;;;41.60;16.50;;;;;;;-128.00;-1.00;-1.00;18885;297;7504952;-34
2023/04/08 03:55:30;;;;;;;36.30;15.90;;;;;;;-128.00;-1.00;-1.00;18864;298;7504750;-31
2023/04/08 03:57:56;;;;;;;34.60;16.20;;;;;;;-128.00;-1.00;-1.00;18872;297;7504608;-34
2023/04/08 04:00:23;;;;;;;39.40;18.90;;;;;;;-128.00;-1.00;-1.00;18884;337;7504176;-34
2023/04/08 04:02:49;;;;;;;37.30;19.10;;;;;;;-128.00;-1.00;-1.00;18862;297;7505904;-34
2023/04/08 04:05:16;;;;;;;31.40;18.10;;;;;;;-128.00;-1.00;-1.00;18462;297;7504800;-34
2023/04/08 04:07:41;;;;;;;35.70;20.30;;;;;;;-128.00;-1.00;-1.00;18466;297;7505562;-30
2023/04/08 04:10:09;;;;;;;38.90;21.40;;;;;;;-128.00;-1.00;-1.00;18852;297;7506104;-31
2023/04/08 04:12:34;;;;;;;34.90;18.10;;;;;;;-128.00;-1.00;-1.00;18469;297;7504851;-35
2023/04/08 04:15:01;;;;;;;39.50;20.20;;;;;;;-128.00;-1.00;-1.00;18860;305;7504600;-30
2023/04/08 04:17:27;;;;;;;36.80;17.90;;;;;;;-128.00;-1.00;-1.00;18861;297;7504481;-35
2023/04/08 04:19:53;;;;;;;41.60;21.50;;;;;;;-128.00;-1.00;-1.00;18892;346;7504218;-34
2023/04/08 04:22:19;;;;;;;46.50;19.60;;;;;;;-128.00;-1.00;-1.00;18852;297;7505088;-32
2023/04/08 04:24:47;;;;;;;48.90;22.70;;;;;;;-128.00;-1.00;-1.00;18859;297;7505713;-32
2023/04/08 04:27:13;;;;;;;39.70;19.60;;;;;;;-128.00;-1.00;-1.00;18471;304;7506307;-33
2023/04/08 04:29:39;;;;;;;32.10;18.00;;;;;;;-128.00;-1.00;-1.00;18462;297;7504527;-34
2023/04/08 04:32:05;;;;;;;33.30;19.10;;;;;;;-128.00;-1.00;-1.00;18867;298;7504842;-31
2023/04/08 04:34:32;;;;;;;37.00;18.40;;;;;;;-128.00;-1.00;-1.00;18871;349;7505149;-32
2023/04/08 05:14:59;;;;;;;37.90;17.60;;;;;;;-102.20;19.20;19964.40;19548;297;8045793;-34
2023/04/08 05:17:26;;;;;;;31.50;16.50;;;;;;;-128.00;-1.00;-1.00;18237;295;7507048;-31
2023/04/08 05:19:52;;;;;;;31.40;18.30;;;;;;;-128.00;-1.00;-1.00;18493;295;7504373;-31
2023/04/08 05:22:18;;;;;;;27.20;14.10;;;;;;;-128.00;-1.00;-1.00;18470;319;7505573;-31
2023/04/08 05:24:44;;;;;;;35.00;17.40;;;;;;;-128.00;-1.00;-1.00;18892;295;7504394;-31
2023/04/08 05:27:11;;;;;;;32.80;18.20;;;;;;;-128.00;-1.00;-1.00;18885;296;7505088;-34
2023/04/08 05:29:37;;;;;;;47.50;23.40;;;;;;;-128.00;-1.00;-1.00;18871;288;7504265;-32
2023/04/08 05:32:03;;;;;;;37.60;22.40;;;;;;;-128.00;-1.00;-1.00;18907;288;7504391;-34
2023/04/08 05:34:30;;;;;;;29.50;17.60;;;;;;;-128.00;-1.00;-1.00;18897;295;7504148;-30
2023/04/08 05:36:56;;;;;;;34.70;17.50;;;;;;;-128.00;-1.00;-1.00;18501;295;7504682;-30
2023/04/08 05:39:22;;;;;;;39.90;21.80;;;;;;;-128.00;-1.00;-1.00;18875;336;7504470;-33
2023/04/08 05:41:48;;;;;;;37.00;20.70;;;;;;;-128.00;-1.00;-1.00;18872;295;7504675;-33
2023/04/08 05:44:14;;;;;;;49.70;27.00;;;;;;;-128.00;-1.00;-1.00;18910;295;7504819;-33
2023/04/08 05:46:40;;;;;;;48.00;24.00;;;;;;;-128.00;-1.00;-1.00;18887;295;7505193;-32
2023/04/08 05:49:07;;;;;;;41.40;21.30;;;;;;;-128.00;-1.00;-1.00;18888;296;7504539;-33
2023/04/08 05:51:33;;;;;;;35.30;19.50;;;;;;;-128.00;-1.00;-1.00;18881;295;7504797;-35
2023/04/08 05:53:59;;;;;;;33.50;19.70;;;;;;;-128.00;-1.00;-1.00;18865;295;7504516;-36
2023/04/08 05:56:25;;;;;;;34.60;17.40;;;;;;;-128.00;-1.00;-1.00;18892;288;7506009;-33
2023/04/08 05:58:51;;;;;;;33.30;19.70;;;;;;;-128.00;-1.00;-1.00;18890;297;7504599;-32
2023/04/08 06:01:18;;;;;;;23.00;15.10;;;;;;;-128.00;-1.00;-1.00;18896;296;7504886;-34
2023/04/08 06:03:44;;;;;;;27.40;15.20;;;;;;;-128.00;-1.00;-1.00;18511;288;7506084;-34
2023/04/08 06:06:13;;;;;;;31.10;15.60;;;;;;;-128.00;-1.00;-1.00;18488;288;7506356;-34
2023/04/08 06:08:39;;;;;;;26.90;14.10;;;;;;;-128.00;-1.00;-1.00;18466;295;7504334;-31
2023/04/08 06:11:05;;;;;;;23.60;15.30;;;;;;;-128.00;-1.00;-1.00;18500;288;7504570;-31
2023/04/08 06:13:31;;;;;;;22.00;13.60;;;;;;;-128.00;-1.00;-1.00;18478;295;7505415;-32
2023/04/08 06:15:57;;;;;;;25.00;14.40;;;;;;;-128.00;-1.00;-1.00;18497;296;7505754;-34
2023/04/08 06:18:24;;;;;;;24.80;15.50;;;;;;;-128.00;-1.00;-1.00;18499;287;7504758;-35
2023/04/08 06:20:50;;;;;;;24.90;13.70;;;;;;;-128.00;-1.00;-1.00;18454;296;7506019;-35
2023/04/08 06:23:16;;;;;;;26.80;14.60;;;;;;;-128.00;-1.00;-1.00;18485;296;7504394;-34
2023/04/08 06:25:42;;;;;;;26.30;15.70;;;;;;;-128.00;-1.00;-1.00;18890;296;7505659;-31
2023/04/08 06:28:08;;;;;;;39.10;18.00;;;;;;;-128.00;-1.00;-1.00;18912;296;7504951;-31
2023/04/08 06:30:35;;;;;;;30.70;17.50;;;;;;;-128.00;-1.00;-1.00;18847;296;7504913;-33
2023/04/08 06:33:01;;;;;;;31.30;17.70;;;;;;;-128.00;-1.00;-1.00;18878;287;7504893;-32
2023/04/08 06:35:27;;;;;;;21.80;12.90;;;;;;;-128.00;-1.00;-1.00;18484;348;7504574;-31
2023/04/08 06:37:53;;;;;;;25.80;15.00;;;;;;;-128.00;-1.00;-1.00;18899;295;7505655;-31
2023/04/08 06:40:20;;;;;;;32.90;17.20;;;;;;;-128.00;-1.00;-1.00;18912;348;7505380;-31
2023/04/08 06:42:47;;;;;;;31.30;18.60;;;;;;;-128.00;-1.00;-1.00;18876;296;7504693;-34
2023/04/08 06:45:13;;;;;;;23.10;14.50;;;;;;;-128.00;-1.00;-1.00;18473;296;7504538;-35
2023/04/08 06:47:38;;;;;;;18.70;9.70;;;;;;;-128.00;-1.00;-1.00;18479;319;7505776;-31
2023/04/08 06:50:05;;;;;;;28.50;15.40;;;;;;;-128.00;-1.00;-1.00;18901;296;7504760;-34
2023/04/08 06:52:31;;;;;;;17.20;11.70;;;;;;;-128.00;-1.00;-1.00;18537;296;7505235;-35
2023/04/08 06:54:57;;;;;;;21.20;14.80;;;;;;;-128.00;-1.00;-1.00;18491;296;7505095;-32
2023/04/08 06:57:23;;;;;;;27.20;14.10;;;;;;;-128.00;-1.00;-1.00;18892;296;7504388;-33
2023/04/08 06:59:49;;;;;;;22.90;12.30;;;;;;;-128.00;-1.00;-1.00;18900;287;7503992;-34
2023/04/08 07:02:16;;;;;;;22.30;14.70;;;;;;;-128.00;-1.00;-1.00;18892;296;7505155;-34
2023/04/08 07:04:42;;;;;;;27.10;14.70;;;;;;;-128.00;-1.00;-1.00;18870;288;7504757;-33
2023/04/08 07:07:08;;;;;;;21.00;13.10;;;;;;;-128.00;-1.00;-1.00;18875;348;7504885;-31
2023/04/08 07:09:35;;;;;;;24.40;15.60;;;;;;;-128.00;-1.00;-1.00;18867;341;7504801;-30
2023/04/08 07:12:03;;;;;;;25.50;14.00;;;;;;;-128.00;-1.00;-1.00;18466;288;7506066;-34
2023/04/08 07:14:29;;;;;;;19.50;13.90;;;;;;;-128.00;-1.00;-1.00;18483;290;7506000;-34
2023/04/08 07:16:55;;;;;;;36.10;18.90;;;;;;;-128.00;-1.00;-1.00;18488;296;7506097;-30
2023/04/08 07:19:23;;;;;;;26.10;14.90;;;;;;;-128.00;-1.00;-1.00;18488;287;7504147;-31
2023/04/08 07:21:49;;;;;;;22.20;13.30;;;;;;;-128.00;-1.00;-1.00;18494;347;7506190;-30
2023/04/08 07:24:15;;;;;;;24.20;14.50;;;;;;;-128.00;-1.00;-1.00;18507;311;7504717;-34
2023/04/08 07:26:40;;;;;;;22.30;14.30;;;;;;;-128.00;-1.00;-1.00;18471;296;7504564;-31
2023/04/08 07:29:06;;;;;;;25.10;15.10;;;;;;;-128.00;-1.00;-1.00;18479;296;7504483;-35
2023/04/08 07:31:32;;;;;;;18.60;12.60;;;;;;;-128.00;-1.00;-1.00;18520;296;7504155;-35
2023/04/08 07:33:58;;;;;;;29.60;17.10;;;;;;;-128.00;-1.00;-1.00;18895;296;7505178;-34
2023/04/08 07:36:25;;;;;;;22.50;14.50;;;;;;;-128.00;-1.00;-1.00;18900;296;7504910;-34
2023/04/08 07:38:51;;;;;;;27.50;15.30;;;;;;;-128.00;-1.00;-1.00;18485;287;7504595;-31
2023/04/08 07:41:16;;;;;;;26.20;15.40;;;;;;;-128.00;-1.00;-1.00;18476;296;7506042;-34
2023/04/08 07:43:42;;;;;;;41.40;20.10;;;;;;;-128.00;-1.00;-1.00;18471;287;7504628;-31
2023/04/08 07:46:08;;;;;;;22.20;15.80;;;;;;;-128.00;-1.00;-1.00;18477;296;7505933;-31
2023/04/08 07:48:34;;;;;;;25.30;14.10;;;;;;;-128.00;-1.00;-1.00;18524;347;7504836;-31
2023/04/08 07:51:04;;;;;;;51.60;22.00;;;;;;;-128.00;-1.00;-1.00;18490;287;7505092;-34
2023/04/08 07:53:30;;;;;;;40.90;20.70;;;;;;;-128.00;-1.00;-1.00;18506;287;7506564;-34
2023/04/08 07:55:56;;;;;;;22.90;15.40;;;;;;;-128.00;-1.00;-1.00;18492;347;7505368;-31
2023/04/08 07:58:22;;;;;;;45.40;21.30;;;;;;;-128.00;-1.00;-1.00;18497;287;7504969;-34
2023/04/08 08:00:48;;;;;;;45.40;20.50;;;;;;;-128.00;-1.00;-1.00;18492;296;7504650;-34
2023/04/08 08:03:14;;;;;;;63.30;28.70;;;;;;;-128.00;-1.00;-1.00;18484;287;7505391;-31
2023/04/08 08:05:40;;;;;;;236.60;79.40;;;;;;;-128.00;-1.00;-1.00;18506;287;7506153;-34
2023/04/08 08:08:06;;;;;;;30.80;15.50;;;;;;;-128.00;-1.00;-1.00;18490;287;7504822;-31
2023/04/08 08:10:32;;;;;;;59.10;28.70;;;;;;;-128.00;-1.00;-1.00;18491;295;7504947;-32
2023/04/08 08:12:58;;;;;;;18.20;11.60;;;;;;;-128.00;-1.00;-1.00;18499;296;7504454;-35
2023/04/08 08:15:24;;;;;;;42.40;18.30;;;;;;;-128.00;-1.00;-1.00;18510;296;7506390;-31
2023/04/08 08:17:50;;;;;;;24.70;13.20;;;;;;;-128.00;-1.00;-1.00;18458;287;7504299;-34
2023/04/08 08:20:16;;;;;;;15.90;10.30;;;;;;;-128.00;-1.00;-1.00;18487;284;7506943;-35
2023/04/08 08:22:44;;;;;;;13.70;9.50;;;;;;;-128.00;-1.00;-1.00;18867;296;7504940;-37
2023/04/08 08:25:10;;;;;;;9.90;8.60;;;;;;;-128.00;-1.00;-1.00;18468;287;7504296;-35
2023/04/08 08:27:35;;;;;;;11.20;8.80;;;;;;;-128.00;-1.00;-1.00;18459;284;7504932;-32
2023/04/08 08:30:03;;;;;;;15.30;11.30;;;;;;;-128.00;-1.00;-1.00;18449;296;7504895;-32
2023/04/08 08:32:28;;;;;;;12.70;10.20;;;;;;;-128.00;-1.00;-1.00;18470;296;7504196;-31
2023/04/08 08:34:54;;;;;;;12.00;9.20;;;;;;;-128.00;-1.00;-1.00;18862;297;7504442;-35
2023/04/08 08:37:21;;;;;;;14.90;11.30;;;;;;;-128.00;-1.00;-1.00;18850;297;7505188;-31
2023/04/08 08:39:47;;;;;;;13.00;9.90;;;;;;;-128.00;-1.00;-1.00;18854;295;7505323;-32
2023/04/08 08:42:25;;;;;;;12.40;9.60;;;;;;;-128.00;-1.00;-1.00;18853;298;7505766;-32
2023/04/08 08:44:51;;;;;;;13.30;9.40;;;;;;;-128.00;-1.00;-1.00;18475;287;7504301;-34
2023/04/08 08:47:17;;;;;;;17.10;12.30;;;;;;;-128.00;-1.00;-1.00;18887;348;7504980;-34
2023/04/08 08:49:44;;;;;;;16.10;11.00;;;;;;;-128.00;-1.00;-1.00;18845;298;7505465;-31
2023/04/08 08:52:10;;;;;;;17.20;11.90;;;;;;;-128.00;-1.00;-1.00;18467;297;7504527;-34
2023/04/08 08:54:37;;;;;;;18.20;13.00;;;;;;;-128.00;-1.00;-1.00;18478;295;7505847;-33
2023/04/08 08:57:03;;;;;;;13.20;9.00;;;;;;;-128.00;-1.00;-1.00;18469;348;7504819;-33
2023/04/08 08:59:28;;;;;;;20.10;10.30;;;;;;;-128.00;-1.00;-1.00;18484;295;7504535;-34
2023/04/08 09:01:54;;;;;;;18.50;11.40;;;;;;;-128.00;-1.00;-1.00;18467;296;7504847;-33
2023/04/08 09:04:21;;;;;;;22.10;11.30;;;;;;;-128.00;-1.00;-1.00;18887;295;7504546;-34
2023/04/08 09:06:51;;;;;;;14.50;10.90;;;;;;;-128.00;-1.00;-1.00;18447;348;7506174;-33
2023/04/08 09:09:17;;;;;;;15.50;11.00;;;;;;;-128.00;-1.00;-1.00;18468;296;7506067;-31
2023/04/08 09:11:44;;;;;;;15.10;10.60;;;;;;;-128.00;-1.00;-1.00;18475;295;7505882;-31
2023/04/08 09:14:17;;;;;;;16.40;10.30;;;;;;;-128.00;-1.00;-1.00;18454;348;7505549;-35
2023/04/08 09:16:43;;;;;;;15.90;10.00;;;;;;;-128.00;-1.00;-1.00;18471;296;7504301;-35
2023/04/08 09:19:10;;;;;;;16.10;10.80;;;;;;;-128.00;-1.00;-1.00;18462;297;7506308;-31
2023/04/08 09:21:37;;;;;;;15.30;9.80;;;;;;;-128.00;-1.00;-1.00;18453;287;7506260;-35
2023/04/08 09:24:02;;;;;;;13.70;9.60;;;;;;;-128.00;-1.00;-1.00;18468;348;7504833;-31
2023/04/08 09:26:28;;;;;;;14.10;9.30;;;;;;;-128.00;-1.00;-1.00;18481;296;7504586;-31
2023/04/08 09:29:01;;;;;;;15.50;13.10;;;;;;;-128.00;-1.00;-1.00;18476;295;7506417;-33
2023/04/08 09:31:32;;;;;;;20.10;14.00;;;;;;;-128.00;-1.00;-1.00;18478;296;7504872;-32
2023/04/08 09:34:01;;;;;;;55.80;35.50;;;;;;;-128.00;-1.00;-1.00;18467;298;7504711;-33
2023/04/08 09:36:27;;;;;;;21.30;15.00;;;;;;;-128.00;-1.00;-1.00;18477;297;7504191;-36
2023/04/08 09:38:53;;;;;;;18.90;12.60;;;;;;;-128.00;-1.00;-1.00;18473;295;7506268;-36
2023/04/08 09:41:20;;;;;;;11.80;9.00;;;;;;;-128.00;-1.00;-1.00;18484;287;7504686;-36
2023/04/08 09:43:50;;;;;;;16.40;12.20;;;;;;;-128.00;-1.00;-1.00;18452;287;7505307;-35
2023/04/08 09:46:18;;;;;;;19.10;11.20;;;;;;;-128.00;-1.00;-1.00;18459;296;7504443;-35
2023/04/08 09:48:52;;;;;;;19.00;13.00;;;;;;;-128.00;-1.00;-1.00;18471;296;7505670;-35
2023/04/08 09:51:18;;;;;;;11.00;8.40;;;;;;;-128.00;-1.00;-1.00;18478;295;7506522;-35
2023/04/08 09:53:49;;;;;;;21.00;15.50;;;;;;;-128.00;-1.00;-1.00;18503;296;7504514;-31
2023/04/08 09:56:15;;;;;;;17.20;12.70;;;;;;;-128.00;-1.00;-1.00;18492;308;7506093;-35
2023/04/08 09:58:45;;;;;;;12.10;9.80;;;;;;;-128.00;-1.00;-1.00;18507;296;7504549;-31
2023/04/08 10:01:13;;;;;;;11.50;9.00;;;;;;;-128.00;-1.00;-1.00;18465;340;7505121;-32
2023/04/08 10:03:48;;;;;;;7.90;6.60;;;;;;;-128.00;-1.00;-1.00;18476;296;7506018;-36
2023/04/08 10:06:14;;;;;;;10.90;9.70;;;;;;;-128.00;-1.00;-1.00;18465;296;7504639;-35
2023/04/08 10:08:40;;;;;;;12.20;10.60;;;;;;;-128.00;-1.00;-1.00;18501;287;7504139;-31
2023/04/08 10:11:06;;;;;;;12.00;9.80;;;;;;;-128.00;-1.00;-1.00;18495;295;7504672;-34
2023/04/08 10:13:31;;;;;;;13.20;8.20;;;;;;;-128.00;-1.00;-1.00;18483;287;7507296;-32
2023/04/08 10:16:20;;;;;;;13.30;8.90;;;;;;;-128.00;-1.00;-1.00;18900;287;7504859;-32
2023/04/08 10:18:46;;;;;;;10.90;6.90;;;;;;;-128.00;-1.00;-1.00;18467;296;7504313;-35
2023/04/08 10:21:31;;;;;;;8.20;7.20;;;;;;;-128.00;-1.00;-1.00;18470;295;7506736;-31
2023/04/08 10:23:59;;;;;;;10.70;8.60;;;;;;;-128.00;-1.00;-1.00;18509;295;7505098;-32
2023/04/08 10:26:33;;;;;;;14.00;10.30;;;;;;;-128.00;-1.00;-1.00;18482;296;7504810;-31
2023/04/08 10:29:31;;;;;;;14.00;9.90;;;;;;;-128.00;-1.00;-1.00;18435;295;7505197;-31
2023/04/08 10:31:56;;;;;;;20.70;13.50;;;;;;;-128.00;-1.00;-1.00;18502;296;7504491;-31
2023/04/08 10:34:26;;;;;;;13.70;10.70;;;;;;;-128.00;-1.00;-1.00;18488;287;7504129;-32
2023/04/08 10:36:54;;;;;;;11.40;7.30;;;;;;;-128.00;-1.00;-1.00;18491;296;7505021;-34
2023/04/08 10:39:20;;;;;;;8.60;7.70;;;;;;;-128.00;-1.00;-1.00;18455;309;7505050;-34
2023/04/08 10:41:47;;;;;;;9.20;7.90;;;;;;;-128.00;-1.00;-1.00;18462;348;7504452;-34
2023/04/08 10:44:25;;;;;;;14.10;8.90;;;;;;;-128.00;-1.00;-1.00;18483;295;7504770;-31
2023/04/08 10:46:52;;;;;;;13.30;9.70;;;;;;;-128.00;-1.00;-1.00;18503;284;7506454;-33
2023/04/08 10:49:18;;;;;;;9.40;6.90;;;;;;;-128.00;-1.00;-1.00;18461;297;7504593;-35
2023/04/08 10:51:45;;;;;;;11.10;9.80;;;;;;;-128.00;-1.00;-1.00;18485;284;7504337;-30
2023/04/08 10:54:12;;;;;;;14.30;10.20;;;;;;;-128.00;-1.00;-1.00;18473;297;7505228;-34
2023/04/08 10:56:51;;;;;;;11.30;9.70;;;;;;;-128.00;-1.00;-1.00;18490;307;7504687;-30
2023/04/08 10:59:29;;;;;;;13.70;11.10;;;;;;;-128.00;-1.00;-1.00;18468;287;7504648;-31
2023/04/08 11:01:55;;;;;;;12.60;9.70;;;;;;;-128.00;-1.00;-1.00;18474;287;7504823;-36
2023/04/08 11:46:39;;;;;;;10.40;8.10;;;;;;;-100.45;12.96;20005.02;98227;296;1545066;-34
2023/04/08 11:49:06;;;;;;;25.70;12.30;;;;;;;-128.00;-1.00;-1.00;97470;297;1003612;-34
2023/04/08 11:51:33;;;;;;;20.00;15.10;;;;;;;-128.00;-1.00;-1.00;97780;296;1003338;-33
2023/04/08 11:54:04;;;;;;;12.80;9.80;;;;;;;-128.00;-1.00;-1.00;97827;295;1002660;-29
2023/04/08 11:56:32;;;;;;;7.70;6.10;;;;;;;-128.00;-1.00;-1.00;96648;295;1003491;-30
2023/04/08 11:58:59;;;;;;;12.50;9.50;;;;;;;-128.00;-1.00;-1.00;24605;295;7504922;-35
2023/04/08 12:01:26;;;;;;;15.00;11.00;;;;;;;-128.00;-1.00;-1.00;18864;340;7505605;-35
2023/04/08 12:03:54;;;;;;;11.20;8.70;;;;;;;-128.00;-1.00;-1.00;18886;295;7505835;-31
2023/04/08 12:06:20;;;;;;;7.10;6.40;;;;;;;-128.00;-1.00;-1.00;18444;320;7505835;-35
2023/04/08 12:08:46;;;;;;;13.30;9.20;;;;;;;-128.00;-1.00;-1.00;18863;288;7504161;-32
2023/04/08 12:11:14;;;;;;;12.80;9.80;;;;;;;-128.00;-1.00;-1.00;18449;346;7506917;-34
2023/04/08 12:13:41;;;;;;;14.80;9.50;;;;;;;-128.00;-1.00;-1.00;18458;295;7504672;-31
2023/04/08 12:16:07;;;;;;;13.50;6.00;;;;;;;-128.00;-1.00;-1.00;18471;296;7504177;-31
2023/04/08 12:18:32;;;;;;;14.60;10.40;;;;;;;-128.00;-1.00;-1.00;18480;295;7504465;-31
2023/04/08 12:20:58;;;;;;;21.70;12.60;;;;;;;-128.00;-1.00;-1.00;18447;295;7505285;-31
2023/04/08 12:23:24;;;;;;;17.50;12.20;;;;;;;-128.00;-1.00;-1.00;18466;288;7505097;-33
2023/04/08 12:25:50;;;;;;;15.80;11.90;;;;;;;-128.00;-1.00;-1.00;18489;296;7504644;-31
2023/04/08 12:28:15;;;;;;;14.30;9.80;;;;;;;-128.00;-1.00;-1.00;18489;288;7504636;-34
2023/04/08 12:30:41;;;;;;;18.30;10.80;;;;;;;-128.00;-1.00;-1.00;18449;295;7504863;-34
2023/04/08 12:33:06;;;;;;;12.40;10.60;;;;;;;-128.00;-1.00;-1.00;18471;295;7506059;-31
2023/04/08 12:35:33;;;;;;;14.80;11.20;;;;;;;-128.00;-1.00;-1.00;18873;297;7506440;-35
2023/04/08 12:37:59;;;;;;;28.60;14.30;;;;;;;-128.00;-1.00;-1.00;18891;349;7504532;-31